createdAt,value
2018-12-27T00:50:39.623Z,1.17
2018-12-27T01:36:22.951Z,0.72
2018-12-27T01:41:57.511Z,1.02
2018-12-27T01:44:46.087Z,0.90
2018-12-27T01:47:34.594Z,1.25
2018-12-27T02:05:30.716Z,0.90
2018-12-27T02:08:19.206Z,2.15
2018-12-27T02:11:06.251Z,0.90
2018-12-27T02:13:52.799Z,0.80
2018-12-27T02:16:38.235Z,1.10
2018-12-27T02:22:26.331Z,1.05
2018-12-27T02:25:14.854Z,0.85
2018-12-27T02:28:01.947Z,1.17
2018-12-27T02:30:48.507Z,1.07
2018-12-27T02:33:35.315Z,0.93
2018-12-27T02:36:20.672Z,1.05
2018-12-27T03:12:47.526Z,1.10
2018-12-27T03:15:17.110Z,0.70
2018-12-27T03:17:46.614Z,1.45
2018-12-27T03:20:16.105Z,1.47
2018-12-27T03:22:45.639Z,1.25
2018-12-27T03:25:15.154Z,1.00
2018-12-27T03:27:44.715Z,1.15
2018-12-27T03:30:14.220Z,1.20
2018-12-27T03:32:43.702Z,1.37
2018-12-27T03:35:13.271Z,1.05
2018-12-27T03:37:42.740Z,1.40
2018-12-27T03:40:12.222Z,1.52
2018-12-27T03:42:41.711Z,1.12
2018-12-27T03:45:11.268Z,1.42
2018-12-27T03:47:40.819Z,1.70
2018-12-27T03:50:10.375Z,0.85
2018-12-27T03:52:39.867Z,1.10
2018-12-27T03:55:09.348Z,1.05
2018-12-27T03:57:38.860Z,1.37
2018-12-27T04:00:27.427Z,1.30
2018-12-27T04:02:56.903Z,1.00
2018-12-27T04:05:26.378Z,1.20
2018-12-27T04:07:55.883Z,1.77
2018-12-27T04:10:25.499Z,1.32
2018-12-27T04:12:54.978Z,1.10
2018-12-27T04:15:24.302Z,2.10
2018-12-27T04:17:53.631Z,0.95
2018-12-27T04:20:22.960Z,0.93
2018-12-27T04:22:52.294Z,1.20
2018-12-27T04:25:21.830Z,1.40
2018-12-27T04:27:51.155Z,1.35
2018-12-27T04:30:20.489Z,1.10
2018-12-27T04:32:50.311Z,1.20
2018-12-27T04:35:19.647Z,1.27
2018-12-27T04:37:48.978Z,1.00
2018-12-27T04:40:18.301Z,1.10
2018-12-27T04:42:47.835Z,1.00
2018-12-27T04:45:17.169Z,1.00
2018-12-27T04:47:46.575Z,1.42
2018-12-27T04:50:15.967Z,1.12
2018-12-27T04:52:45.299Z,1.80
2018-12-27T04:55:14.633Z,1.85
2018-12-27T04:57:44.033Z,1.15
2018-12-27T05:00:32.466Z,1.62
2018-12-27T05:15:22.802Z,1.30
2018-12-27T05:18:11.214Z,0.90
2018-12-27T05:33:00.550Z,1.27
2018-12-27T05:35:48.926Z,1.60
2018-12-27T05:38:18.383Z,1.85
2018-12-27T05:41:06.758Z,0.90
2018-12-27T06:32:59.891Z,1.45
2018-12-27T06:35:48.271Z,1.60
2018-12-27T06:38:36.646Z,1.10
2018-12-27T06:41:05.980Z,1.92
2018-12-27T06:43:54.435Z,1.02
2018-12-27T06:46:42.879Z,1.20
2018-12-27T07:07:57.279Z,0.90
2018-12-27T07:10:45.673Z,1.22
2018-12-27T07:13:34.154Z,1.35
2018-12-27T07:16:18.535Z,1.37
2018-12-27T07:19:11.683Z,1.07
2018-12-27T07:21:56.091Z,1.55
2018-12-27T07:24:25.524Z,1.20
2018-12-27T07:27:13.964Z,1.30
2018-12-27T07:30:02.411Z,1.15
2018-12-27T07:35:37.125Z,1.70
2018-12-27T07:38:25.490Z,1.35
2018-12-27T07:40:54.990Z,2.22
2018-12-27T07:43:24.298Z,1.67
2018-12-27T07:46:12.671Z,1.42
2018-12-27T07:48:42.039Z,1.10
2018-12-27T07:51:11.413Z,0.98
2018-12-27T07:53:40.743Z,1.98
2018-12-27T07:56:10.072Z,1.72
2018-12-27T07:58:39.412Z,8.25
2018-12-27T08:01:08.729Z,2.25
2018-12-27T08:03:38.111Z,1.15
2018-12-27T08:06:07.439Z,1.85
2018-12-27T08:08:55.899Z,2.37
2018-12-27T08:11:25.216Z,1.67
2018-12-27T08:14:13.660Z,1.80
2018-12-27T08:16:42.979Z,1.47
2018-12-27T08:19:31.434Z,1.85
2018-12-27T08:22:19.844Z,1.35
2018-12-27T08:37:17.065Z,1.75
2018-12-27T08:40:05.615Z,1.30
2018-12-27T08:51:50.091Z,2.15
2018-12-27T08:54:38.698Z,2.02
2018-12-27T08:57:27.203Z,2.75
2018-12-27T09:12:17.145Z,1.30
2018-12-27T09:14:46.463Z,1.82
2018-12-27T09:17:15.794Z,1.40
2018-12-27T09:19:45.124Z,1.62
2018-12-27T09:22:14.454Z,1.47
2018-12-27T09:24:43.803Z,1.32
2018-12-27T09:27:13.141Z,1.52
2018-12-27T09:29:42.486Z,1.57
2018-12-27T09:32:11.820Z,1.02
2018-12-27T09:35:00.290Z,1.95
2018-12-27T09:37:29.799Z,1.30
2018-12-27T09:40:18.190Z,1.67
2018-12-27T09:42:47.524Z,1.80
2018-12-27T09:45:35.971Z,1.60
2018-12-27T09:54:15.620Z,1.60
2018-12-27T09:56:45.018Z,1.42
2018-12-27T09:59:14.436Z,1.40
2018-12-27T10:01:43.762Z,2.10
2018-12-27T10:04:32.155Z,1.85
2018-12-27T10:07:01.509Z,2.10
2018-12-27T10:09:30.893Z,2.70
2018-12-27T10:12:19.529Z,2.30
2018-12-27T10:15:08.696Z,1.60
2018-12-27T10:17:38.119Z,2.00
2018-12-27T10:20:26.583Z,1.32
2018-12-27T10:44:32.954Z,1.92
2018-12-27T10:50:08.459Z,1.77
2018-12-27T10:52:56.898Z,2.20
2018-12-27T11:01:36.955Z,1.90
2018-12-27T11:16:10.298Z,1.98
2018-12-27T11:18:39.632Z,2.20
2018-12-27T11:21:09.028Z,1.90
2018-12-27T11:23:57.434Z,1.40
2018-12-27T12:00:23.774Z,1.90
2018-12-27T12:02:53.096Z,1.42
2018-12-27T12:05:41.480Z,2.10
2018-12-27T12:08:29.856Z,1.80
2018-12-27T12:23:20.365Z,2.58
2018-12-27T12:26:08.776Z,2.15
2018-12-27T12:31:36.922Z,1.98
2018-12-27T12:34:25.454Z,1.70
2018-12-27T12:37:14.385Z,2.02
2018-12-27T12:42:33.086Z,1.90
2018-12-27T12:45:21.743Z,1.85
2018-12-27T12:47:51.079Z,1.60
2018-12-27T12:50:39.758Z,2.22
2018-12-27T12:53:09.118Z,1.40
2018-12-27T12:55:57.554Z,1.40
2018-12-27T12:58:26.951Z,2.05
2018-12-27T13:00:56.283Z,1.80
2018-12-27T13:03:44.670Z,2.40
2018-12-27T13:06:18.000Z,1.40
2018-12-27T13:08:45.080Z,2.30
2018-12-27T13:11:14.414Z,1.77
2018-12-27T13:14:02.801Z,1.90
2018-12-27T13:19:51.466Z,2.20
2018-12-27T13:22:39.895Z,2.10
2018-12-27T13:25:09.371Z,1.70
2018-12-27T13:27:38.762Z,1.92
2018-12-27T13:30:08.430Z,1.98
2018-12-27T13:32:37.758Z,2.30
2018-12-27T13:35:07.099Z,1.80
2018-12-27T13:37:55.486Z,2.50
2018-12-27T13:40:24.802Z,3.55
2018-12-27T13:43:13.322Z,2.50
2018-12-27T13:45:42.665Z,2.33
2018-12-27T13:54:22.151Z,2.37
2018-12-27T13:57:10.566Z,2.60
2018-12-27T14:21:16.158Z,2.60
2018-12-27T14:24:04.605Z,2.65
2018-12-27T14:26:53.068Z,1.50
2018-12-27T14:33:05.215Z,1.98
2018-12-27T14:35:34.534Z,2.40
2018-12-27T14:38:22.919Z,2.50
2018-12-27T14:40:52.280Z,1.82
2018-12-27T14:43:40.675Z,2.30
2018-12-27T14:46:29.062Z,2.05
2018-12-27T14:51:51.908Z,2.33
2018-12-27T14:54:21.403Z,2.33
2018-12-27T14:57:09.790Z,2.87
2018-12-27T14:59:39.218Z,3.30
2018-12-27T15:02:27.595Z,3.10
2018-12-27T15:08:01.771Z,2.55
2018-12-27T15:10:50.371Z,2.30
2018-12-27T15:13:19.694Z,2.58
2018-12-27T15:15:49.099Z,3.25
2018-12-27T15:18:37.546Z,2.58
2018-12-27T15:27:31.500Z,2.90
2018-12-27T15:30:00.877Z,2.52
2018-12-27T15:32:49.304Z,4.10
2018-12-27T15:35:18.668Z,2.92
2018-12-27T15:37:48.066Z,2.62
2018-12-27T15:40:17.406Z,2.80
2018-12-27T15:42:46.778Z,3.08
2018-12-27T15:45:16.099Z,4.50
2018-12-27T15:47:45.515Z,10.08
2018-12-27T15:50:14.855Z,7.33
2018-12-27T15:52:44.323Z,4.90
2018-12-27T15:55:32.697Z,4.15
2018-12-27T15:58:02.110Z,4.15
2018-12-27T16:00:31.466Z,3.30
2018-12-27T16:03:00.838Z,4.20
2018-12-27T16:05:30.169Z,3.02
2018-12-27T16:07:59.494Z,3.67
2018-12-27T16:10:28.884Z,3.00
2018-12-27T16:12:58.231Z,2.85
2018-12-27T16:15:27.574Z,4.03
2018-12-27T16:17:57.004Z,4.28
2018-12-27T16:20:26.342Z,2.80
2018-12-27T16:22:55.747Z,2.35
2018-12-27T16:25:25.075Z,2.92
2018-12-27T16:27:54.411Z,2.42
2018-12-27T16:30:23.740Z,3.75
2018-12-27T16:32:53.165Z,3.08
2018-12-27T16:35:22.496Z,3.30
2018-12-27T16:37:51.851Z,2.72
2018-12-27T16:40:21.280Z,2.50
2018-12-27T16:42:50.639Z,3.40
2018-12-27T16:45:19.994Z,3.58
2018-12-27T16:47:49.534Z,3.20
2018-12-27T16:50:18.979Z,3.40
2018-12-27T16:52:48.390Z,3.47
2018-12-27T16:55:17.714Z,4.62
2018-12-27T16:57:47.049Z,4.53
2018-12-27T17:00:16.410Z,4.08
2018-12-27T17:02:45.816Z,4.58
2018-12-27T17:05:15.214Z,2.92
2018-12-27T17:07:44.679Z,3.67
2018-12-27T17:10:14.082Z,4.12
2018-12-27T17:12:43.500Z,4.47
2018-12-27T17:15:12.827Z,3.70
2018-12-27T17:17:42.171Z,4.50
2018-12-27T17:20:11.511Z,4.28
2018-12-27T17:22:40.858Z,3.83
2018-12-27T17:25:10.373Z,4.95
2018-12-27T17:27:39.786Z,7.10
2018-12-27T17:30:09.355Z,6.03
2018-12-27T17:32:38.696Z,6.53
2018-12-27T17:35:08.026Z,7.08
2018-12-27T17:37:37.376Z,4.30
2018-12-27T17:40:06.918Z,3.60
2018-12-27T17:42:36.294Z,4.60
2018-12-27T17:45:05.778Z,5.45
2018-12-27T17:47:35.145Z,4.95
2018-12-27T17:50:04.473Z,4.42
2018-12-27T17:52:33.883Z,4.08
2018-12-27T17:55:03.224Z,3.70
2018-12-27T17:57:32.740Z,4.28
2018-12-27T18:00:02.176Z,3.72
2018-12-27T18:02:31.554Z,3.45
2018-12-27T18:05:00.911Z,3.25
2018-12-27T18:07:49.295Z,3.20
2018-12-27T18:10:18.670Z,3.62
2018-12-27T18:12:48.096Z,3.30
2018-12-27T18:15:17.439Z,2.90
2018-12-27T18:17:46.780Z,3.83
2018-12-27T18:20:35.146Z,2.92
2018-12-27T18:29:28.531Z,3.20
2018-12-27T18:32:16.970Z,3.90
2018-12-27T18:34:46.330Z,3.17
2018-12-27T18:37:15.734Z,3.35
2018-12-27T18:40:04.395Z,3.80
2018-12-27T18:42:52.790Z,4.97
2018-12-27T18:45:22.123Z,3.40
2018-12-27T18:48:10.531Z,3.87
2018-12-27T18:50:58.978Z,3.25
2018-12-27T18:56:33.343Z,3.40
2018-12-27T18:59:21.712Z,2.80
2018-12-27T19:01:51.123Z,3.27
2018-12-27T19:04:39.502Z,3.20
2018-12-27T19:07:08.915Z,2.85
2018-12-27T19:09:38.240Z,3.72
2018-12-27T19:12:48.827Z,4.87
2018-12-27T19:15:38.876Z,4.58
2018-12-27T19:24:33.283Z,3.15
2018-12-27T19:36:32.126Z,2.95
2018-12-27T19:39:20.533Z,3.10
2018-12-27T19:41:49.871Z,3.70
2018-12-27T19:44:19.268Z,3.00
2018-12-27T19:47:07.751Z,2.80
2018-12-27T19:49:56.186Z,2.75
2018-12-27T19:52:25.574Z,3.00
2018-12-27T19:55:13.963Z,4.08
2018-12-27T20:13:09.198Z,3.05
2018-12-27T20:15:38.532Z,2.85
2018-12-27T20:18:27.062Z,3.87
2018-12-27T20:20:56.390Z,2.60
2018-12-27T20:23:44.834Z,2.90
2018-12-27T20:26:14.211Z,2.87
2018-12-27T20:29:02.607Z,4.12
2018-12-27T20:31:32.018Z,5.50
2018-12-27T20:34:01.387Z,4.87
2018-12-27T20:36:30.719Z,3.98
2018-12-27T20:44:52.810Z,3.70
2018-12-27T20:47:22.150Z,3.95
2018-12-27T20:49:51.490Z,4.40
2018-12-27T20:52:20.898Z,4.80
2018-12-27T20:54:50.271Z,3.80
2018-12-27T20:57:38.646Z,4.45
2018-12-27T21:00:28.674Z,4.92
2018-12-27T21:03:17.263Z,4.85
2018-12-27T21:05:46.658Z,4.35
2018-12-27T21:08:15.974Z,3.80
2018-12-27T21:10:45.307Z,4.53
2018-12-27T21:13:14.641Z,3.80
2018-12-27T21:15:44.043Z,4.70
2018-12-27T21:18:13.380Z,4.80
2018-12-27T21:20:42.786Z,5.15
2018-12-27T21:23:12.110Z,4.42
2018-12-27T21:25:41.443Z,5.12
2018-12-27T21:28:10.774Z,6.87
2018-12-27T21:30:40.102Z,6.10
2018-12-27T21:33:09.463Z,5.62
2018-12-27T21:35:38.859Z,6.08
2018-12-27T21:38:08.196Z,5.83
2018-12-27T21:40:37.603Z,5.60
2018-12-27T21:43:06.933Z,5.30
2018-12-27T21:45:36.731Z,3.75
2018-12-27T21:48:06.189Z,4.20
2018-12-27T21:50:35.510Z,4.90
2018-12-27T21:53:04.841Z,4.33
2018-12-27T21:55:34.170Z,4.10
2018-12-27T21:58:03.501Z,3.75
2018-12-27T22:00:32.834Z,3.85
2018-12-27T22:03:02.245Z,3.08
2018-12-27T22:05:31.565Z,3.47
2018-12-27T22:08:00.888Z,4.37
2018-12-27T22:10:30.220Z,4.00
2018-12-27T22:12:59.543Z,4.00
2018-12-27T22:15:28.879Z,3.72
2018-12-27T22:17:58.287Z,5.58
2018-12-27T22:20:27.614Z,3.52
2018-12-27T22:22:56.958Z,4.20
2018-12-27T22:25:26.290Z,3.67
2018-12-27T22:27:55.655Z,2.83
2018-12-27T22:30:25.047Z,3.92
2018-12-27T22:32:54.444Z,3.15
2018-12-27T22:35:23.860Z,4.08
2018-12-27T22:37:53.258Z,4.80
2018-12-27T22:40:22.599Z,4.15
2018-12-27T22:42:52.016Z,4.20
2018-12-27T22:45:21.356Z,4.00
2018-12-27T22:47:50.759Z,4.25
2018-12-27T22:50:20.165Z,3.90
2018-12-27T22:52:49.566Z,5.40
2018-12-27T22:55:18.903Z,4.65
2018-12-27T22:57:48.303Z,4.22
2018-12-27T23:00:27.447Z,4.75
2018-12-27T23:02:56.779Z,4.37
2018-12-27T23:05:26.251Z,3.25
2018-12-27T23:07:55.578Z,4.53
2018-12-27T23:10:24.910Z,3.50
2018-12-27T23:12:54.247Z,4.47
2018-12-27T23:15:23.645Z,2.92
2018-12-27T23:17:53.038Z,3.72
2018-12-27T23:20:22.438Z,4.85
2018-12-27T23:22:51.766Z,3.45
2018-12-27T23:25:21.108Z,2.55
2018-12-27T23:27:50.444Z,3.50
2018-12-27T23:30:19.834Z,3.55
2018-12-27T23:32:49.159Z,3.40
2018-12-27T23:35:18.555Z,3.35
2018-12-27T23:37:47.884Z,3.87
2018-12-27T23:40:17.217Z,4.25
2018-12-27T23:42:46.836Z,3.37
2018-12-27T23:45:16.163Z,2.70
2018-12-27T23:47:45.495Z,3.00
2018-12-27T23:50:14.833Z,3.05
2018-12-27T23:52:44.173Z,2.70
2018-12-27T23:55:13.570Z,3.58
2018-12-27T23:57:42.894Z,2.42
